sensor_id;sensor_type;location;lat;lon;timestamp;pressure;altitude;pressure_sealevel;temperature;humidity
65384;BME280;51986;52.788;41.368;2022-12-18T00:01:40;98660.28;;;3.95;78.77
65384;BME280;51986;52.788;41.368;2022-12-18T00:04:12;98638.31;;;3.96;78.70
65384;BME280;51986;52.788;41.368;2022-12-18T00:06:42;98670.81;;;4.06;79.42
65384;BME280;51986;52.788;41.368;2022-12-18T00:09:10;98665.16;;;4.00;79.11
65384;BME280;51986;52.788;41.368;2022-12-18T00:11:37;98679.75;;;4.05;80.52
65384;BME280;51986;52.788;41.368;2022-12-18T00:14:04;98656.97;;;3.98;79.55
65384;BME280;51986;52.788;41.368;2022-12-18T00:16:31;98683.53;;;4.11;80.39
65384;BME280;51986;52.788;41.368;2022-12-18T00:18:58;98659.72;;;4.20;79.55
65384;BME280;51986;52.788;41.368;2022-12-18T00:21:28;98663.06;;;4.16;79.98
65384;BME280;51986;52.788;41.368;2022-12-18T00:23:56;98647.75;;;4.15;80.34
65384;BME280;51986;52.788;41.368;2022-12-18T00:26:31;98654.84;;;4.18;80.67
65384;BME280;51986;52.788;41.368;2022-12-18T00:29:11;98637.03;;;4.34;79.63
65384;BME280;51986;52.788;41.368;2022-12-18T00:31:39;98642.63;;;4.33;79.65
65384;BME280;51986;52.788;41.368;2022-12-18T00:34:08;98601.22;;;4.28;80.22
65384;BME280;51986;52.788;41.368;2022-12-18T00:36:39;98597.88;;;4.34;80.10
65384;BME280;51986;52.788;41.368;2022-12-18T00:39:06;98594.59;;;4.48;79.77
65384;BME280;51986;52.788;41.368;2022-12-18T00:41:33;98599.03;;;4.37;80.41
65384;BME280;51986;52.788;41.368;2022-12-18T00:44:01;98587.91;;;4.47;80.27
65384;BME280;51986;52.788;41.368;2022-12-18T00:46:28;98630.06;;;4.46;80.28
65384;BME280;51986;52.788;41.368;2022-12-18T00:48:55;98608.03;;;4.47;81.10
65384;BME280;51986;52.788;41.368;2022-12-18T00:51:22;98588.28;;;4.49;80.90
65384;BME280;51986;52.788;41.368;2022-12-18T00:53:49;98621.47;;;4.45;81.30
65384;BME280;51986;52.788;41.368;2022-12-18T00:56:16;98615.16;;;4.50;81.11
65384;BME280;51986;52.788;41.368;2022-12-18T00:58:43;98601.38;;;4.60;80.80
65384;BME280;51986;52.788;41.368;2022-12-18T01:01:09;98600.19;;;4.43;81.50
65384;BME280;51986;52.788;41.368;2022-12-18T01:03:36;98607.72;;;4.59;80.75
65384;BME280;51986;52.788;41.368;2022-12-18T01:06:09;98572.66;;;4.60;81.06
65384;BME280;51986;52.788;41.368;2022-12-18T01:08:37;98573.41;;;4.64;80.33
65384;BME280;51986;52.788;41.368;2022-12-18T01:11:16;98565.59;;;4.64;81.00
65384;BME280;51986;52.788;41.368;2022-12-18T01:13:43;98568.97;;;4.79;80.05
65384;BME280;51986;52.788;41.368;2022-12-18T01:16:14;98577.94;;;4.85;79.65
65384;BME280;51986;52.788;41.368;2022-12-18T01:18:42;98584.25;;;4.77;80.31
65384;BME280;51986;52.788;41.368;2022-12-18T01:21:11;98577.16;;;4.77;80.73
65384;BME280;51986;52.788;41.368;2022-12-18T01:23:39;98533.75;;;4.40;80.97
65384;BME280;51986;52.788;41.368;2022-12-18T01:26:08;98582.78;;;4.76;80.74
65384;BME280;51986;52.788;41.368;2022-12-18T01:28:36;98573.47;;;4.85;79.66
65384;BME280;51986;52.788;41.368;2022-12-18T01:31:17;98545.84;;;4.81;80.16
65384;BME280;51986;52.788;41.368;2022-12-18T01:33:50;98557.03;;;4.81;81.50
65384;BME280;51986;52.788;41.368;2022-12-18T01:36:21;98552.19;;;4.80;81.19
65384;BME280;51986;52.788;41.368;2022-12-18T01:38:49;98561.53;;;4.84;80.87
65384;BME280;51986;52.788;41.368;2022-12-18T01:41:20;98593.66;;;4.92;80.76
65384;BME280;51986;52.788;41.368;2022-12-18T01:43:55;98539.88;;;4.87;82.20
65384;BME280;51986;52.788;41.368;2022-12-18T01:46:24;98521.22;;;4.96;81.31
65384;BME280;51986;52.788;41.368;2022-12-18T01:48:59;98510.00;;;4.96;81.20
65384;BME280;51986;52.788;41.368;2022-12-18T01:51:29;98549.59;;;4.98;81.63
65384;BME280;51986;52.788;41.368;2022-12-18T01:53:57;98516.34;;;4.91;81.38
65384;BME280;51986;52.788;41.368;2022-12-18T01:56:26;98524.56;;;4.86;81.47
65384;BME280;51986;52.788;41.368;2022-12-18T01:58:59;98495.47;;;5.02;81.84
65384;BME280;51986;52.788;41.368;2022-12-18T02:01:29;98495.09;;;5.00;81.13
65384;BME280;51986;52.788;41.368;2022-12-18T02:04:22;98513.75;;;5.05;80.96
65384;BME280;51986;52.788;41.368;2022-12-18T02:06:55;98483.50;;;5.04;81.15
65384;BME280;51986;52.788;41.368;2022-12-18T02:09:40;98457.34;;;5.15;80.28
65384;BME280;51986;52.788;41.368;2022-12-18T02:12:15;98491.00;;;5.16;80.76
65384;BME280;51986;52.788;41.368;2022-12-18T02:17:56;98501.44;;;5.06;81.16
65384;BME280;51986;52.788;41.368;2022-12-18T02:20:35;98482.78;;;5.04;81.31
65384;BME280;51986;52.788;41.368;2022-12-18T02:23:17;98487.63;;;5.09;80.88
65384;BME280;51986;52.788;41.368;2022-12-18T02:28:39;98500.31;;;5.00;81.55
65384;BME280;51986;52.788;41.368;2022-12-18T02:31:13;98503.69;;;5.07;81.69
65384;BME280;51986;52.788;41.368;2022-12-18T02:33:43;98517.50;;;5.18;81.36
65384;BME280;51986;52.788;41.368;2022-12-18T02:36:12;98519.34;;;4.97;81.92
65384;BME280;51986;52.788;41.368;2022-12-18T02:38:42;98522.72;;;5.01;81.74
65384;BME280;51986;52.788;41.368;2022-12-18T02:41:14;98529.44;;;4.95;82.00
65384;BME280;51986;52.788;41.368;2022-12-18T02:43:49;98534.66;;;5.05;80.67
65384;BME280;51986;52.788;41.368;2022-12-18T02:46:29;98535.78;;;4.97;81.37
65384;BME280;51986;52.788;41.368;2022-12-18T02:49:12;98500.69;;;5.02;81.42
65384;BME280;51986;52.788;41.368;2022-12-18T02:51:52;98515.97;;;4.96;81.20
65384;BME280;51986;52.788;41.368;2022-12-18T02:57:15;98501.06;;;5.04;81.60
65384;BME280;51986;52.788;41.368;2022-12-18T03:00:00;98480.88;;;4.86;81.52
65384;BME280;51986;52.788;41.368;2022-12-18T03:02:41;98497.34;;;4.98;81.37
65384;BME280;51986;52.788;41.368;2022-12-18T03:05:17;98495.06;;;4.96;81.13
65384;BME280;51986;52.788;41.368;2022-12-18T03:07:59;98507.03;;;5.01;81.64
65384;BME280;51986;52.788;41.368;2022-12-18T03:10:33;98496.59;;;4.97;81.36
65384;BME280;51986;52.788;41.368;2022-12-18T03:13:06;98496.59;;;4.93;81.55
65384;BME280;51986;52.788;41.368;2022-12-18T03:15:39;98512.25;;;4.86;81.95
65384;BME280;51986;52.788;41.368;2022-12-18T03:18:23;98490.25;;;5.02;81.41
65384;BME280;51986;52.788;41.368;2022-12-18T03:20:54;98499.56;;;5.03;81.47
65384;BME280;51986;52.788;41.368;2022-12-18T03:23:27;98504.78;;;5.10;80.96
65384;BME280;51986;52.788;41.368;2022-12-18T03:25:57;98489.84;;;5.14;80.94
65384;BME280;51986;52.788;41.368;2022-12-18T03:28:39;98502.19;;;5.10;80.74
65384;BME280;51986;52.788;41.368;2022-12-18T03:31:09;98488.38;;;5.16;81.28
65384;BME280;51986;52.788;41.368;2022-12-18T03:36:08;98485.38;;;5.04;80.73
65384;BME280;51986;52.788;41.368;2022-12-18T03:38:35;98458.13;;;4.98;80.39
65384;BME280;51986;52.788;41.368;2022-12-18T03:44:34;98480.91;;;5.11;80.60
65384;BME280;51986;52.788;41.368;2022-12-18T03:50:12;98489.13;;;5.03;81.19
65384;BME280;51986;52.788;41.368;2022-12-18T03:52:45;98513.38;;;5.14;80.60
65384;BME280;51986;52.788;41.368;2022-12-18T03:55:15;98480.88;;;5.01;80.77
65384;BME280;51986;52.788;41.368;2022-12-18T03:57:47;98475.66;;;5.22;80.35
65384;BME280;51986;52.788;41.368;2022-12-18T04:00:17;98468.19;;;5.10;80.85
65384;BME280;51986;52.788;41.368;2022-12-18T04:03:00;98481.63;;;5.19;80.47
65384;BME280;51986;52.788;41.368;2022-12-18T04:05:36;98475.69;;;5.08;80.60
65384;BME280;51986;52.788;41.368;2022-12-18T04:08:05;98477.91;;;5.24;81.01
65384;BME280;51986;52.788;41.368;2022-12-18T04:10:37;98459.22;;;4.97;82.04
65384;BME280;51986;52.788;41.368;2022-12-18T04:13:04;98481.28;;;5.03;81.92
65384;BME280;51986;52.788;41.368;2022-12-18T04:15:33;98465.22;;;5.04;81.70
65384;BME280;51986;52.788;41.368;2022-12-18T04:18:03;98477.91;;;5.09;81.51
65384;BME280;51986;52.788;41.368;2022-12-18T04:20:37;98470.06;;;5.16;81.20
65384;BME280;51986;52.788;41.368;2022-12-18T04:23:04;98457.00;;;5.09;81.63
65384;BME280;51986;52.788;41.368;2022-12-18T04:25:31;98465.22;;;5.04;81.46
65384;BME280;51986;52.788;41.368;2022-12-18T04:28:08;98448.78;;;5.07;81.83
65384;BME280;51986;52.788;41.368;2022-12-18T04:30:37;98440.56;;;5.09;80.79
65384;BME280;51986;52.788;41.368;2022-12-18T04:33:12;98455.13;;;5.10;81.35
65384;BME280;51986;52.788;41.368;2022-12-18T04:35:40;98468.59;;;5.12;81.51
65384;BME280;51986;52.788;41.368;2022-12-18T04:38:08;98452.88;;;5.19;80.70
65384;BME280;51986;52.788;41.368;2022-12-18T04:40:36;98461.47;;;5.19;81.04
65384;BME280;51986;52.788;41.368;2022-12-18T04:43:10;98473.78;;;5.15;80.82
65384;BME280;51986;52.788;41.368;2022-12-18T04:45:37;98474.94;;;5.04;81.36
65384;BME280;51986;52.788;41.368;2022-12-18T04:48:06;98466.69;;;5.19;80.24
65384;BME280;51986;52.788;41.368;2022-12-18T04:50:33;98468.97;;;5.21;79.84
65384;BME280;51986;52.788;41.368;2022-12-18T04:53:00;98474.16;;;5.14;79.96
65384;BME280;51986;52.788;41.368;2022-12-18T04:55:27;98480.50;;;5.06;80.64
65384;BME280;51986;52.788;41.368;2022-12-18T04:57:54;98481.28;;;5.13;80.29
65384;BME280;51986;52.788;41.368;2022-12-18T05:00:22;98490.59;;;5.18;80.33
65384;BME280;51986;52.788;41.368;2022-12-18T05:02:49;98468.94;;;5.00;79.87
65384;BME280;51986;52.788;41.368;2022-12-18T05:05:16;98483.91;;;5.03;79.84
65384;BME280;51986;52.788;41.368;2022-12-18T05:07:43;98470.06;;;4.99;80.20
65384;BME280;51986;52.788;41.368;2022-12-18T05:10:11;98483.88;;;4.96;80.23
65384;BME280;51986;52.788;41.368;2022-12-18T05:12:38;98490.59;;;5.04;80.15
65384;BME280;51986;52.788;41.368;2022-12-18T05:15:05;98506.66;;;5.27;79.47
65384;BME280;51986;52.788;41.368;2022-12-18T05:17:33;98493.59;;;5.06;80.43
65384;BME280;51986;52.788;41.368;2022-12-18T05:19:59;98496.59;;;4.93;80.54
65384;BME280;51986;52.788;41.368;2022-12-18T05:22:26;98517.13;;;5.13;80.21
65384;BME280;51986;52.788;41.368;2022-12-18T05:24:53;98516.00;;;5.03;80.48
65384;BME280;51986;52.788;41.368;2022-12-18T05:27:20;98534.69;;;5.09;80.06
65384;BME280;51986;52.788;41.368;2022-12-18T05:29:47;98527.97;;;5.08;79.68
65384;BME280;51986;52.788;41.368;2022-12-18T05:32:14;98521.97;;;5.00;80.27
65384;BME280;51986;52.788;41.368;2022-12-18T05:34:41;98536.16;;;5.03;79.79
65384;BME280;51986;52.788;41.368;2022-12-18T05:37:08;98516.75;;;4.93;80.31
65384;BME280;51986;52.788;41.368;2022-12-18T05:39:35;98520.47;;;4.99;80.30
65384;BME280;51986;52.788;41.368;2022-12-18T05:42:02;98540.25;;;4.89;80.09
65384;BME280;51986;52.788;41.368;2022-12-18T05:44:28;98551.81;;;4.88;79.89
65384;BME280;51986;52.788;41.368;2022-12-18T05:46:55;98546.63;;;4.99;79.91
65384;BME280;51986;52.788;41.368;2022-12-18T05:49:22;98563.00;;;4.85;79.62
65384;BME280;51986;52.788;41.368;2022-12-18T05:51:49;98577.97;;;4.88;80.13
65384;BME280;51986;52.788;41.368;2022-12-18T05:54:16;98555.56;;;4.87;79.54
65384;BME280;51986;52.788;41.368;2022-12-18T05:56:43;98570.91;;;5.03;79.22
65384;BME280;51986;52.788;41.368;2022-12-18T05:59:14;98549.94;;;4.82;79.43
65384;BME280;51986;52.788;41.368;2022-12-18T06:01:41;98572.34;;;4.90;80.03
65384;BME280;51986;52.788;41.368;2022-12-18T06:04:08;98586.19;;;4.98;80.58
65384;BME280;51986;52.788;41.368;2022-12-18T06:06:35;98573.47;;;4.89;80.92
65384;BME280;51986;52.788;41.368;2022-12-18T06:09:03;98592.88;;;4.91;81.40
65384;BME280;51986;52.788;41.368;2022-12-18T06:11:31;98574.22;;;4.89;81.04
65384;BME280;51986;52.788;41.368;2022-12-18T06:13:57;98574.25;;;5.00;80.35
65384;BME280;51986;52.788;41.368;2022-12-18T06:16:27;98572.03;;;5.02;80.67
65384;BME280;51986;52.788;41.368;2022-12-18T06:18:58;98567.16;;;5.08;79.95
65384;BME280;51986;52.788;41.368;2022-12-18T06:21:28;98584.34;;;5.12;79.86
65384;BME280;51986;52.788;41.368;2022-12-18T06:23:56;98603.00;;;5.11;79.67
65384;BME280;51986;52.788;41.368;2022-12-18T06:26:24;98582.09;;;5.14;79.04
65384;BME280;51986;52.788;41.368;2022-12-18T06:28:54;98606.38;;;5.15;78.56
65384;BME280;51986;52.788;41.368;2022-12-18T06:31:21;98607.09;;;5.01;77.28
65384;BME280;51986;52.788;41.368;2022-12-18T06:33:48;98610.81;;;4.97;76.88
65384;BME280;51986;52.788;41.368;2022-12-18T06:36:15;98622.78;;;5.05;76.50
65384;BME280;51986;52.788;41.368;2022-12-18T06:38:43;98622.75;;;4.90;76.14
65384;BME280;51986;52.788;41.368;2022-12-18T06:41:15;98626.47;;;4.86;75.40
65384;BME280;51986;52.788;41.368;2022-12-18T06:43:44;98616.75;;;4.76;74.68
65384;BME280;51986;52.788;41.368;2022-12-18T06:46:11;98630.63;;;4.98;73.80
65384;BME280;51986;52.788;41.368;2022-12-18T06:48:38;98619.72;;;4.74;72.98
65384;BME280;51986;52.788;41.368;2022-12-18T06:51:06;98643.63;;;4.80;73.17
65384;BME280;51986;52.788;41.368;2022-12-18T06:53:33;98634.28;;;4.82;72.65
65384;BME280;51986;52.788;41.368;2022-12-18T06:56:05;98627.91;;;4.69;72.85
65384;BME280;51986;52.788;41.368;2022-12-18T06:58:36;98629.38;;;4.63;72.69
65384;BME280;51986;52.788;41.368;2022-12-18T07:01:07;98660.03;;;4.77;72.65
65384;BME280;51986;52.788;41.368;2022-12-18T07:03:34;98671.94;;;4.67;72.93
65384;BME280;51986;52.788;41.368;2022-12-18T07:06:01;98688.34;;;4.67;72.51
65384;BME280;51986;52.788;41.368;2022-12-18T07:08:30;98670.84;;;4.68;72.53
65384;BME280;51986;52.788;41.368;2022-12-18T07:10:57;98702.91;;;4.65;72.58
65384;BME280;51986;52.788;41.368;2022-12-18T07:13:24;98693.59;;;4.67;72.30
65384;BME280;51986;52.788;41.368;2022-12-18T07:15:51;98673.25;;;4.36;72.42
65384;BME280;51986;52.788;41.368;2022-12-18T07:18:18;98708.31;;;4.38;71.47
65384;BME280;51986;52.788;41.368;2022-12-18T07:20:45;98727.44;;;3.98;71.56
65384;BME280;51986;52.788;41.368;2022-12-18T07:23:13;98710.56;;;3.88;71.61
65384;BME280;51986;52.788;41.368;2022-12-18T07:25:40;98714.03;;;3.62;71.85
65384;BME280;51986;52.788;41.368;2022-12-18T07:28:07;98729.41;;;3.71;71.55
65384;BME280;51986;52.788;41.368;2022-12-18T07:30:41;98744.19;;;3.56;71.90
65384;BME280;51986;52.788;41.368;2022-12-18T07:33:08;98759.94;;;3.33;71.93
65384;BME280;51986;52.788;41.368;2022-12-18T07:35:35;98744.06;;;3.46;71.66
65384;BME280;51986;52.788;41.368;2022-12-18T07:38:01;98763.72;;;3.36;71.79
65384;BME280;51986;52.788;41.368;2022-12-18T07:40:28;98774.19;;;3.39;71.53
65384;BME280;51986;52.788;41.368;2022-12-18T07:42:55;98756.47;;;3.22;71.65
65384;BME280;51986;52.788;41.368;2022-12-18T07:45:22;98759.00;;;3.15;71.10
65384;BME280;51986;52.788;41.368;2022-12-18T07:47:49;98762.22;;;3.35;70.90
65384;BME280;51986;52.788;41.368;2022-12-18T07:50:16;98771.31;;;3.18;70.98
65384;BME280;51986;52.788;41.368;2022-12-18T07:52:43;98773.47;;;3.12;70.87
65384;BME280;51986;52.788;41.368;2022-12-18T07:55:10;98766.34;;;3.09;70.40
65384;BME280;51986;52.788;41.368;2022-12-18T07:57:37;98781.34;;;3.16;70.45
65384;BME280;51986;52.788;41.368;2022-12-18T08:00:24;98771.69;;;2.90;71.02
65384;BME280;51986;52.788;41.368;2022-12-18T08:02:51;98763.34;;;2.77;71.31
65384;BME280;51986;52.788;41.368;2022-12-18T08:05:18;98762.00;;;2.87;71.01
65384;BME280;51986;52.788;41.368;2022-12-18T08:07:45;98759.72;;;2.85;71.04
65384;BME280;51986;52.788;41.368;2022-12-18T08:10:12;98775.72;;;2.84;70.05
65384;BME280;51986;52.788;41.368;2022-12-18T08:12:39;98790.28;;;2.88;70.28
65384;BME280;51986;52.788;41.368;2022-12-18T08:15:08;98785.78;;;2.85;69.94
65384;BME280;51986;52.788;41.368;2022-12-18T08:17:35;98779.00;;;2.81;69.60
65384;BME280;51986;52.788;41.368;2022-12-18T08:20:02;98800.09;;;2.99;69.62
65384;BME280;51986;52.788;41.368;2022-12-18T08:22:29;98784.38;;;2.92;69.53
65384;BME280;51986;52.788;41.368;2022-12-18T08:24:56;98790.22;;;2.85;69.77
65384;BME280;51986;52.788;41.368;2022-12-18T08:27:23;98781.59;;;2.77;70.28
65384;BME280;51986;52.788;41.368;2022-12-18T08:29:58;98790.69;;;2.64;69.95
65384;BME280;51986;52.788;41.368;2022-12-18T08:32:26;98782.78;;;2.83;69.91
65384;BME280;51986;52.788;41.368;2022-12-18T08:34:53;98797.72;;;2.86;69.41
65384;BME280;51986;52.788;41.368;2022-12-18T08:37:20;98791.09;;;2.93;69.15
65384;BME280;51986;52.788;41.368;2022-12-18T08:39:47;98808.09;;;3.13;69.24
65384;BME280;51986;52.788;41.368;2022-12-18T08:42:14;98773.03;;;3.07;68.80
65384;BME280;51986;52.788;41.368;2022-12-18T08:44:41;98815.03;;;3.02;69.13
65384;BME280;51986;52.788;41.368;2022-12-18T08:47:08;98792.28;;;2.99;69.35
65384;BME280;51986;52.788;41.368;2022-12-18T08:49:35;98798.41;;;2.83;69.52
65384;BME280;51986;52.788;41.368;2022-12-18T08:52:03;98805.94;;;2.62;70.66
65384;BME280;51986;52.788;41.368;2022-12-18T08:54:30;98813.47;;;2.71;70.32
65384;BME280;51986;52.788;41.368;2022-12-18T08:56:57;98814.50;;;2.63;70.82
65384;BME280;51986;52.788;41.368;2022-12-18T08:59:24;98804.31;;;2.54;70.59
65384;BME280;51986;52.788;41.368;2022-12-18T09:01:53;98810.31;;;2.84;70.21
65384;BME280;51986;52.788;41.368;2022-12-18T09:04:21;98830.22;;;2.70;70.42
65384;BME280;51986;52.788;41.368;2022-12-18T09:06:47;98829.06;;;2.67;70.80
65384;BME280;51986;52.788;41.368;2022-12-18T09:09:15;98806.22;;;2.83;69.84
65384;BME280;51986;52.788;41.368;2022-12-18T09:11:41;98815.38;;;2.74;69.54
65384;BME280;51986;52.788;41.368;2022-12-18T09:14:09;98821.16;;;2.86;69.23
65384;BME280;51986;52.788;41.368;2022-12-18T09:16:36;98813.16;;;2.76;68.81
65384;BME280;51986;52.788;41.368;2022-12-18T09:19:04;98821.00;;;2.76;68.83
65384;BME280;51986;52.788;41.368;2022-12-18T09:21:33;98833.75;;;2.58;69.26
65384;BME280;51986;52.788;41.368;2022-12-18T09:24:03;98843.97;;;2.70;68.84
65384;BME280;51986;52.788;41.368;2022-12-18T09:26:35;98839.94;;;2.73;68.59
65384;BME280;51986;52.788;41.368;2022-12-18T09:29:02;98852.09;;;2.65;68.58
65384;BME280;51986;52.788;41.368;2022-12-18T09:31:29;98856.94;;;2.67;68.83
65384;BME280;51986;52.788;41.368;2022-12-18T09:33:56;98838.09;;;2.73;68.12
65384;BME280;51986;52.788;41.368;2022-12-18T09:36:23;98863.66;;;2.68;68.22
65384;BME280;51986;52.788;41.368;2022-12-18T09:38:50;98861.41;;;2.66;68.17
65384;BME280;51986;52.788;41.368;2022-12-18T09:41:33;98848.66;;;2.61;68.70
65384;BME280;51986;52.788;41.368;2022-12-18T09:44:23;98874.13;;;2.71;68.28
65384;BME280;51986;52.788;41.368;2022-12-18T09:49:21;98862.09;;;2.63;67.96
65384;BME280;51986;52.788;41.368;2022-12-18T09:54:24;98876.78;;;2.52;68.11
65384;BME280;51986;52.788;41.368;2022-12-18T09:56:53;98875.66;;;2.49;68.17
65384;BME280;51986;52.788;41.368;2022-12-18T09:59:26;98883.38;;;2.46;68.02
65384;BME280;51986;52.788;41.368;2022-12-18T10:01:56;98898.31;;;2.49;68.20
65384;BME280;51986;52.788;41.368;2022-12-18T10:04:24;98861.22;;;2.55;68.02
65384;BME280;51986;52.788;41.368;2022-12-18T10:07:22;98899.53;;;2.55;67.91
65384;BME280;51986;52.788;41.368;2022-12-18T10:10:23;98857.53;;;2.56;67.72
65384;BME280;51986;52.788;41.368;2022-12-18T10:15:47;98879.47;;;2.55;67.60
65384;BME280;51986;52.788;41.368;2022-12-18T10:20:54;98881.88;;;2.45;67.65
65384;BME280;51986;52.788;41.368;2022-12-18T10:26:18;98890.66;;;2.36;68.07
65384;BME280;51986;52.788;41.368;2022-12-18T10:28:47;98885.63;;;2.47;68.00
65384;BME280;51986;52.788;41.368;2022-12-18T10:31:20;98895.19;;;2.40;68.24
65384;BME280;51986;52.788;41.368;2022-12-18T10:33:51;98900.66;;;2.54;67.27
65384;BME280;51986;52.788;41.368;2022-12-18T10:36:18;98919.41;;;2.63;67.53
65384;BME280;51986;52.788;41.368;2022-12-18T10:38:45;98904.59;;;2.67;67.37
65384;BME280;51986;52.788;41.368;2022-12-18T10:43:47;98897.91;;;2.70;66.14
65384;BME280;51986;52.788;41.368;2022-12-18T10:46:17;98905.09;;;2.53;66.63
65384;BME280;51986;52.788;41.368;2022-12-18T10:51:53;98895.31;;;2.47;66.44
65384;BME280;51986;52.788;41.368;2022-12-18T10:54:16;98894.63;;;2.50;66.13
65384;BME280;51986;52.788;41.368;2022-12-18T10:56:44;98906.59;;;2.54;66.07
65384;BME280;51986;52.788;41.368;2022-12-18T10:59:14;98925.03;;;2.46;66.21
65384;BME280;51986;52.788;41.368;2022-12-18T11:01:57;98925.25;;;2.37;66.26
65384;BME280;51986;52.788;41.368;2022-12-18T11:04:30;98904.53;;;2.21;66.13
65384;BME280;51986;52.788;41.368;2022-12-18T11:07:00;98897.41;;;2.18;66.31
65384;BME280;51986;52.788;41.368;2022-12-18T11:09:30;98896.31;;;2.19;66.19
65384;BME280;51986;52.788;41.368;2022-12-18T11:17:20;98929.06;;;2.20;65.39
65384;BME280;51986;52.788;41.368;2022-12-18T11:22:57;98932.25;;;2.14;65.91
65384;BME280;51986;52.788;41.368;2022-12-18T11:25:25;98932.94;;;2.30;65.31
65384;BME280;51986;52.788;41.368;2022-12-18T11:28:25;98893.31;;;1.98;65.11
65384;BME280;51986;52.788;41.368;2022-12-18T11:31:29;98945.88;;;2.26;64.88
65384;BME280;51986;52.788;41.368;2022-12-18T11:34:03;98895.38;;;2.08;65.07
65384;BME280;51986;52.788;41.368;2022-12-18T11:36:53;98926.50;;;2.04;65.38
65384;BME280;51986;52.788;41.368;2022-12-18T11:39:27;98930.22;;;2.03;64.94
65384;BME280;51986;52.788;41.368;2022-12-18T11:42:09;98924.72;;;2.08;65.07
65384;BME280;51986;52.788;41.368;2022-12-18T11:44:52;98928.78;;;2.06;64.59
65384;BME280;51986;52.788;41.368;2022-12-18T11:47:34;98915.91;;;2.13;65.33
65384;BME280;51986;52.788;41.368;2022-12-18T11:50:19;98935.22;;;2.12;65.18
65384;BME280;51986;52.788;41.368;2022-12-18T11:52:47;98945.22;;;2.10;65.37
65384;BME280;51986;52.788;41.368;2022-12-18T12:12:38;98945.50;;;1.86;66.47
65384;BME280;51986;52.788;41.368;2022-12-18T12:24:01;98991.91;;;2.03;66.60
65384;BME280;51986;52.788;41.368;2022-12-18T12:29:55;98986.63;;;1.64;65.68
65384;BME280;51986;52.788;41.368;2022-12-18T12:35:37;98987.59;;;1.24;67.25
65384;BME280;51986;52.788;41.368;2022-12-18T12:38:30;98979.69;;;0.89;71.33
65384;BME280;51986;52.788;41.368;2022-12-18T12:41:02;99020.84;;;1.03;69.22
65384;BME280;51986;52.788;41.368;2022-12-18T12:43:43;99016.78;;;0.74;70.70
65384;BME280;51986;52.788;41.368;2022-12-18T12:46:19;99014.94;;;0.74;70.12
65384;BME280;51986;52.788;41.368;2022-12-18T12:48:52;99034.78;;;0.95;69.51
65384;BME280;51986;52.788;41.368;2022-12-18T12:53:54;99015.78;;;0.78;69.26
65384;BME280;51986;52.788;41.368;2022-12-18T12:56:32;99007.59;;;0.76;69.40
65384;BME280;51986;52.788;41.368;2022-12-18T12:59:24;99031.97;;;0.88;68.93
65384;BME280;51986;52.788;41.368;2022-12-18T13:10:31;99044.22;;;0.59;67.75
65384;BME280;51986;52.788;41.368;2022-12-18T13:16:13;99037.78;;;0.69;67.36
65384;BME280;51986;52.788;41.368;2022-12-18T13:18:23;99044.81;;;0.40;67.58
65384;BME280;51986;52.788;41.368;2022-12-18T13:23:34;99044.41;;;0.38;67.88
65384;BME280;51986;52.788;41.368;2022-12-18T13:34:24;99081.25;;;0.44;66.96
65384;BME280;51986;52.788;41.368;2022-12-18T13:36:57;99065.28;;;0.42;67.81
65384;BME280;51986;52.788;41.368;2022-12-18T13:39:43;99082.22;;;0.39;67.94
65384;BME280;51986;52.788;41.368;2022-12-18T13:44:39;99080.69;;;0.50;67.65
65384;BME280;51986;52.788;41.368;2022-12-18T13:47:34;99087.81;;;0.53;67.61
65384;BME280;51986;52.788;41.368;2022-12-18T13:50:18;99102.25;;;0.39;67.45
65384;BME280;51986;52.788;41.368;2022-12-18T13:52:48;99095.59;;;0.13;68.21
65384;BME280;51986;52.788;41.368;2022-12-18T13:55:18;99100.53;;;0.06;67.96
65384;BME280;51986;52.788;41.368;2022-12-18T13:57:47;99092.56;;;-0.01;68.13
65384;BME280;51986;52.788;41.368;2022-12-18T14:00:26;99098.28;;;0.04;68.00
65384;BME280;51986;52.788;41.368;2022-12-18T14:02:54;99117.41;;;0.12;67.86
65384;BME280;51986;52.788;41.368;2022-12-18T14:05:23;99091.47;;;0.12;67.51
65384;BME280;51986;52.788;41.368;2022-12-18T14:07:50;99110.06;;;0.02;67.43
65384;BME280;51986;52.788;41.368;2022-12-18T14:10:18;99118.28;;;0.04;67.50
65384;BME280;51986;52.788;41.368;2022-12-18T14:13:08;99122.72;;;0.03;66.80
65384;BME280;51986;52.788;41.368;2022-12-18T14:15:39;99124.41;;;0.24;66.52
65384;BME280;51986;52.788;41.368;2022-12-18T14:20:51;99143.22;;;0.33;66.56
65384;BME280;51986;52.788;41.368;2022-12-18T14:23:41;99150.78;;;0.26;66.67
65384;BME280;51986;52.788;41.368;2022-12-18T14:28:49;99139.78;;;0.29;66.96
65384;BME280;51986;52.788;41.368;2022-12-18T14:31:18;99118.38;;;-0.05;67.19
65384;BME280;51986;52.788;41.368;2022-12-18T14:33:46;99142.28;;;0.13;67.02
65384;BME280;51986;52.788;41.368;2022-12-18T14:36:17;99157.84;;;0.13;67.73
65384;BME280;51986;52.788;41.368;2022-12-18T14:38:49;99158.69;;;0.17;67.45
65384;BME280;51986;52.788;41.368;2022-12-18T14:41:18;99166.56;;;0.33;67.64
65384;BME280;51986;52.788;41.368;2022-12-18T14:43:48;99170.34;;;0.11;67.27
65384;BME280;51986;52.788;41.368;2022-12-18T14:46:28;99175.22;;;0.00;67.28
65384;BME280;51986;52.788;41.368;2022-12-18T14:48:56;99174.03;;;0.10;66.52
65384;BME280;51986;52.788;41.368;2022-12-18T14:51:26;99205.59;;;-0.00;66.75
65384;BME280;51986;52.788;41.368;2022-12-18T14:54:04;99177.56;;;-0.07;66.84
65384;BME280;51986;52.788;41.368;2022-12-18T14:56:35;99177.47;;;0.02;66.73
65384;BME280;51986;52.788;41.368;2022-12-18T14:59:05;99191.22;;;0.15;66.48
65384;BME280;51986;52.788;41.368;2022-12-18T15:01:36;99178.75;;;-0.16;67.01
65384;BME280;51986;52.788;41.368;2022-12-18T15:04:05;99176.28;;;0.12;66.46
65384;BME280;51986;52.788;41.368;2022-12-18T15:09:40;99170.41;;;-0.34;68.11
65384;BME280;51986;52.788;41.368;2022-12-18T15:15:02;99185.41;;;0.18;67.80
65384;BME280;51986;52.788;41.368;2022-12-18T15:17:30;99195.75;;;0.06;67.56